Time;durP1;ratioP1;P1;durP2;ratioP2;P2;SDS_P1;SDS_P2;PMS_P1;PMS_P2;Temp;Humidity;BMP_temperature;BMP_pressure;BME280_temperature;BME280_humidity;BME280_pressure;Samples;Min_cycle;Max_cycle;Signal;HPM_P1;HPM_P2
2021/01/09 00:00:50;;;;;;;115.47;47.80;;;;;;;-0.26;81.83;98957.37;119810;1144;65066;-87
2021/01/09 00:03:16;;;;;;;102.33;45.03;;;;;;;-0.27;81.79;98953.89;119782;1144;65277;-85
2021/01/09 00:05:45;;;;;;;89.63;46.33;;;;;;;-0.25;82.09;98955.60;119819;1144;65108;-88
2021/01/09 00:08:12;;;;;;;64.80;32.50;;;;;;;-0.28;81.33;98962.67;119848;1144;65031;-83
2021/01/09 00:10:38;;;;;;;63.25;31.10;;;;;;;-0.31;81.85;98960.16;119817;1144;65128;-86
2021/01/09 00:13:05;;;;;;;59.83;28.83;;;;;;;-0.31;81.17;98965.41;119823;1144;65161;-85
2021/01/09 00:15:31;;;;;;;55.00;25.90;;;;;;;-0.30;81.96;98961.02;119826;1144;65179;-88
2021/01/09 00:17:57;;;;;;;51.13;24.98;;;;;;;-0.28;81.26;98961.81;119850;1145;65199;-85
2021/01/09 00:20:24;;;;;;;53.20;26.90;;;;;;;-0.27;81.44;98966.16;119820;1144;65111;-86
2021/01/09 00:22:51;;;;;;;53.60;26.17;;;;;;;-0.27;81.49;98966.16;119817;1144;65139;-88
2021/01/09 00:25:18;;;;;;;59.13;27.97;;;;;;;-0.30;81.69;98959.25;119840;1144;65052;-84
2021/01/09 00:27:45;;;;;;;55.75;26.85;;;;;;;-0.29;82.01;98965.34;119849;1144;65118;-87
2021/01/09 00:30:12;;;;;;;54.55;26.20;;;;;;;-0.30;81.15;98964.50;119803;1144;65118;-85
2021/01/09 00:32:38;;;;;;;48.35;24.25;;;;;;;-0.32;81.81;98968.05;119782;1144;65015;-86
2021/01/09 00:35:07;;;;;;;48.90;24.20;;;;;;;-0.33;81.50;98975.06;119808;1144;65187;-83
2021/01/09 00:37:33;;;;;;;53.50;25.93;;;;;;;-0.32;81.30;98971.56;119874;1144;65214;-86
2021/01/09 00:40:00;;;;;;;54.37;27.47;;;;;;;-0.31;82.13;98977.66;119778;1144;65268;-86
2021/01/09 00:42:26;;;;;;;62.73;28.77;;;;;;;-0.32;81.07;98973.30;119837;1144;65104;-85
2021/01/09 00:44:52;;;;;;;47.60;24.85;;;;;;;-0.32;81.17;98971.56;119765;1144;65095;-87
2021/01/09 00:47:19;;;;;;;52.03;25.57;;;;;;;-0.31;81.91;98977.66;119795;1144;65108;-83
2021/01/09 00:49:45;;;;;;;58.63;29.83;;;;;;;-0.31;81.69;98977.66;119731;1144;65100;-85
2021/01/09 00:52:12;;;;;;;57.10;29.13;;;;;;;-0.32;81.76;98987.30;119765;1144;65126;-84
2021/01/09 00:54:38;;;;;;;62.90;29.30;;;;;;;-0.35;81.53;98987.37;119845;1144;65201;-88
2021/01/09 00:57:05;;;;;;;56.70;27.50;;;;;;;-0.35;82.14;98984.75;119837;1144;65085;-88
2021/01/09 00:59:31;;;;;;;50.07;25.93;;;;;;;-0.32;81.65;98983.80;119829;1144;65088;-84
2021/01/09 01:01:57;;;;;;;53.03;26.13;;;;;;;-0.32;81.45;98987.30;119815;1145;65089;-85
2021/01/09 01:04:24;;;;;;;51.63;25.93;;;;;;;-0.30;81.27;98992.50;119836;1144;65155;-84
2021/01/09 01:06:51;;;;;;;49.97;25.63;;;;;;;-0.30;81.68;98995.13;119789;1144;65124;-87
2021/01/09 01:09:17;;;;;;;54.57;28.03;;;;;;;-0.30;81.50;98990.73;119856;1144;65317;-85
2021/01/09 01:11:44;;;;;;;57.40;27.75;;;;;;;-0.29;81.66;98994.22;119875;1144;65047;-84
2021/01/09 01:14:10;;;;;;;47.33;25.50;;;;;;;-0.32;81.51;98994.29;119824;1144;65152;-84
2021/01/09 01:16:36;;;;;;;48.17;25.37;;;;;;;-0.31;81.00;98996.89;119836;1144;65120;-84
2021/01/09 01:19:04;;;;;;;52.23;26.13;;;;;;;-0.30;81.03;98997.75;119835;1144;65108;-88
2021/01/09 01:21:34;;;;;;;54.23;25.83;;;;;;;-0.31;81.42;99001.28;119810;1144;65233;-85
2021/01/09 01:24:00;;;;;;;50.03;25.10;;;;;;;-0.33;81.64;98998.68;119838;1144;65183;-86
2021/01/09 01:26:27;;;;;;;56.73;26.80;;;;;;;-0.28;81.35;99001.18;119790;1144;65079;-84
2021/01/09 01:28:53;;;;;;;51.03;24.17;;;;;;;-0.28;81.39;99003.80;119858;1144;65280;-85
2021/01/09 01:31:22;;;;;;;43.67;22.60;;;;;;;-0.27;81.60;99009.00;119837;1144;65095;-85
2021/01/09 01:33:49;;;;;;;45.00;22.93;;;;;;;-0.24;82.07;99012.46;119847;1144;65101;-85
2021/01/09 01:36:16;;;;;;;54.30;24.95;;;;;;;-0.21;81.06;99012.35;119831;1144;65072;-84
2021/01/09 01:38:42;;;;;;;49.90;24.60;;;;;;;-0.23;81.67;99006.30;119796;1144;65065;-83
2021/01/09 01:41:10;;;;;;;49.33;23.70;;;;;;;-0.26;81.38;99009.86;119863;1144;65278;-85
2021/01/09 01:43:37;;;;;;;41.45;21.00;;;;;;;-0.31;81.11;99002.14;119909;1144;65188;-84
2021/01/09 01:46:06;;;;;;;40.93;20.27;;;;;;;-0.33;81.00;98998.68;119792;1144;65181;-87
2021/01/09 01:48:35;;;;;;;37.43;19.77;;;;;;;-0.35;81.35;99005.75;119873;1144;65165;-88
2021/01/09 01:51:02;;;;;;;39.53;21.53;;;;;;;-0.38;81.07;99011.09;119822;1144;65169;-85
2021/01/09 01:53:30;;;;;;;44.67;20.07;;;;;;;-0.36;81.31;99011.91;119794;1144;65135;-84
2021/01/09 01:55:57;;;;;;;35.03;18.37;;;;;;;-0.34;81.25;99017.95;119910;1144;65137;-86
2021/01/09 01:58:23;;;;;;;38.80;18.73;;;;;;;-0.32;81.10;99018.80;119872;1145;65628;-85
2021/01/09 02:00:50;;;;;;;31.90;17.07;;;;;;;-0.27;81.57;99016.88;119824;1144;65209;-86
2021/01/09 02:03:18;;;;;;;36.15;18.65;;;;;;;-0.25;81.69;99019.48;119825;1144;65114;-84
2021/01/09 02:06:09;;;;;;;30.87;16.30;;;;;;;-0.21;81.55;99028.10;119765;1144;65139;-85
2021/01/09 02:09:21;;;;;;;29.67;15.70;;;;;;;-0.19;82.34;99024.55;119865;1144;65281;-84
2021/01/09 02:12:07;;;;;;;27.77;15.33;;;;;;;-0.16;81.97;99024.45;119800;1144;65162;-85
2021/01/09 02:14:47;;;;;;;26.77;13.33;;;;;;;-0.14;82.32;99030.50;119865;1144;65188;-85
2021/01/09 02:17:17;;;;;;;25.25;14.15;;;;;;;-0.13;82.05;99031.36;119827;1144;65009;-89
2021/01/09 02:19:44;;;;;;;25.43;14.37;;;;;;;-0.13;81.53;99032.21;119828;1144;65183;-84
2021/01/09 02:22:18;;;;;;;32.47;15.97;;;;;;;-0.11;82.15;99037.44;119852;1144;65070;-85
2021/01/09 02:24:46;;;;;;;26.97;15.67;;;;;;;-0.11;82.11;99030.42;119854;1144;65618;-85
2021/01/09 02:27:14;;;;;;;26.23;13.40;;;;;;;-0.09;81.90;99041.73;119848;1144;65188;-83
2021/01/09 02:29:52;;;;;;;22.33;12.93;;;;;;;-0.06;82.25;99043.42;119848;1144;65079;-85
2021/01/09 02:32:24;;;;;;;27.63;14.27;;;;;;;-0.05;81.80;99039.89;119794;1143;65168;-85
2021/01/09 02:34:54;;;;;;;25.03;14.23;;;;;;;-0.07;81.64;99042.53;119859;1144;65098;-85
2021/01/09 02:37:22;;;;;;;24.23;13.07;;;;;;;-0.09;82.15;99040.87;119802;1144;65127;-85
2021/01/09 02:39:50;;;;;;;18.73;11.70;;;;;;;-0.11;81.50;99040.92;119815;1146;65603;-85
2021/01/09 02:42:19;;;;;;;18.00;9.80;;;;;;;-0.12;82.14;99036.58;119798;1144;65188;-84
2021/01/09 02:44:50;;;;;;;19.85;12.10;;;;;;;-0.11;81.98;99035.67;119828;1144;65106;-87
2021/01/09 02:47:16;;;;;;;18.33;11.00;;;;;;;-0.12;82.18;99036.58;119877;1144;65079;-84
2021/01/09 02:49:43;;;;;;;20.33;11.70;;;;;;;-0.13;82.39;99039.23;119834;1144;65086;-88
2021/01/09 02:52:10;;;;;;;24.00;12.30;;;;;;;-0.14;81.94;99037.52;119810;1144;65100;-84
2021/01/09 02:54:36;;;;;;;24.10;11.30;;;;;;;-0.15;82.35;99046.30;119807;1144;65066;-84
2021/01/09 02:57:03;;;;;;;30.55;14.35;;;;;;;-0.15;82.14;99030.55;119804;1144;65277;-88
2021/01/09 02:59:30;;;;;;;26.27;12.67;;;;;;;-0.17;81.82;99042.87;119764;1144;65106;-84
2021/01/09 03:01:56;;;;;;;35.67;14.87;;;;;;;-0.18;82.56;99043.78;119827;1144;65184;-84
2021/01/09 03:04:23;;;;;;;31.30;14.20;;;;;;;-0.17;82.59;99035.85;119807;1144;65191;-87
2021/01/09 03:06:49;;;;;;;19.33;11.40;;;;;;;-0.18;82.60;99043.78;119885;1145;65671;-83
2021/01/09 03:09:15;;;;;;;23.42;11.73;;;;;;;-0.20;82.56;99029.81;119823;1144;65191;-84
2021/01/09 03:11:42;;;;;;;20.33;10.77;;;;;;;-0.21;82.05;99031.59;119842;1144;65108;-85
2021/01/09 03:14:08;;;;;;;24.80;12.67;;;;;;;-0.22;81.97;99035.12;119800;1144;65102;-85
2021/01/09 03:16:34;;;;;;;20.65;10.48;;;;;;;-0.22;82.07;99029.87;119793;1144;65107;-84
2021/01/09 03:19:01;;;;;;;31.07;15.10;;;;;;;-0.24;82.06;99036.08;119831;1144;65105;-86
2021/01/09 03:21:27;;;;;;;22.37;11.87;;;;;;;-0.27;81.51;99035.24;119847;1144;65111;-84
2021/01/09 03:23:53;;;;;;;17.10;10.75;;;;;;;-0.25;82.55;99039.58;119884;1144;65107;-84
2021/01/09 03:26:20;;;;;;;15.68;9.48;;;;;;;-0.28;81.74;99041.40;119830;1144;65098;-84
2021/01/09 03:28:46;;;;;;;23.55;12.80;;;;;;;-0.30;82.22;99045.84;119776;1144;65069;-85
2021/01/09 03:31:12;;;;;;;23.80;12.47;;;;;;;-0.32;82.34;99047.66;119788;1144;65105;-86
2021/01/09 03:33:39;;;;;;;32.70;13.70;;;;;;;-0.32;82.24;99052.02;119833;1144;65188;-83
2021/01/09 03:36:05;;;;;;;22.10;12.73;;;;;;;-0.30;82.24;99055.48;119825;1144;65131;-85
2021/01/09 03:38:32;;;;;;;20.65;11.85;;;;;;;-0.30;82.31;99058.96;119815;1144;65177;-86
2021/01/09 03:40:58;;;;;;;24.97;13.13;;;;;;;-0.30;82.02;99058.11;119857;1144;65009;-84
2021/01/09 03:43:25;;;;;;;23.60;12.15;;;;;;;-0.31;82.16;99064.27;119801;1144;65232;-85
2021/01/09 03:45:51;;;;;;;24.87;12.45;;;;;;;-0.34;82.71;99059.94;119860;1144;65127;-87
2021/01/09 03:48:17;;;;;;;21.33;11.60;;;;;;;-0.34;82.45;99059.08;119834;1144;65140;-83
2021/01/09 03:50:44;;;;;;;17.60;11.07;;;;;;;-0.36;82.39;99060.90;119853;1144;65047;-86
2021/01/09 03:53:10;;;;;;;16.40;10.37;;;;;;;-0.38;82.24;99057.44;119815;1147;65063;-85
2021/01/09 03:55:36;;;;;;;20.00;10.70;;;;;;;-0.39;82.02;99066.22;119835;1144;65136;-84
2021/01/09 03:58:03;;;;;;;22.47;12.23;;;;;;;-0.42;82.33;99069.80;119832;1144;65526;-87
2021/01/09 04:00:29;;;;;;;18.77;9.70;;;;;;;-0.42;82.09;99071.56;119814;1144;65165;-85
2021/01/09 04:02:55;;;;;;;17.63;10.67;;;;;;;-0.40;82.60;99067.12;119829;1144;65200;-84
2021/01/09 04:05:22;;;;;;;15.05;8.33;;;;;;;-0.39;82.81;99066.22;119858;1144;65210;-88
2021/01/09 04:07:48;;;;;;;13.67;8.03;;;;;;;-0.39;82.07;99071.46;119788;1144;65076;-83
2021/01/09 04:10:14;;;;;;;12.53;8.27;;;;;;;-0.44;82.60;99068.12;119810;1144;65095;-86
2021/01/09 04:12:41;;;;;;;13.65;8.90;;;;;;;-0.49;82.49;99076.12;119825;1144;65156;-87
2021/01/09 04:15:08;;;;;;;12.80;8.53;;;;;;;-0.52;82.24;99072.70;119843;1144;65100;-85
2021/01/09 04:17:34;;;;;;;11.05;7.45;;;;;;;-0.53;81.59;99079.72;119871;1144;65105;-84
2021/01/09 04:20:00;;;;;;;11.05;6.58;;;;;;;-0.55;82.67;99078.91;119839;1144;65134;-85
2021/01/09 04:22:27;;;;;;;14.30;8.73;;;;;;;-0.55;82.59;99087.63;119836;1144;66743;-85
2021/01/09 04:24:53;;;;;;;11.13;6.63;;;;;;;-0.53;81.61;99095.45;119823;1144;65118;-84
2021/01/09 04:27:19;;;;;;;10.03;6.03;;;;;;;-0.52;81.64;99096.31;119830;1144;65066;-85
2021/01/09 04:29:46;;;;;;;9.48;5.95;;;;;;;-0.53;82.11;99095.45;119856;1144;65162;-86
2021/01/09 04:32:12;;;;;;;9.80;6.15;;;;;;;-0.53;81.60;99095.45;119856;1144;65101;-86
2021/01/09 04:34:38;;;;;;;8.65;6.35;;;;;;;-0.54;81.52;99104.23;119827;1144;65491;-84
2021/01/09 04:37:05;;;;;;;9.60;5.87;;;;;;;-0.57;81.99;99105.19;119834;1144;65162;-84
2021/01/09 04:39:31;;;;;;;12.37;6.40;;;;;;;-0.58;82.23;99102.58;119800;1144;65087;-86
2021/01/09 04:41:58;;;;;;;5.93;4.07;;;;;;;-0.59;81.17;99106.11;119680;1144;65188;-85
2021/01/09 04:44:24;;;;;;;7.90;4.70;;;;;;;-0.61;81.55;99108.78;119483;1144;65178;-86
2021/01/09 04:46:57;;;;;;;9.03;4.03;;;;;;;-0.63;81.53;99109.73;119519;1144;65165;-85
2021/01/09 04:49:27;;;;;;;9.13;5.17;;;;;;;-0.62;81.20;99106.20;119549;1145;65123;-86
2021/01/09 04:51:55;;;;;;;10.93;5.40;;;;;;;-0.65;81.45;99104.50;119593;1145;65105;-85
2021/01/09 04:54:24;;;;;;;8.10;5.10;;;;;;;-0.66;81.50;99110.66;119749;1144;65256;-86
2021/01/09 04:56:53;;;;;;;10.65;5.85;;;;;;;-0.66;81.61;99104.55;119888;1144;65103;-84
2021/01/09 04:59:22;;;;;;;8.90;6.07;;;;;;;-0.68;81.54;99107.22;119872;1144;65589;-85
2021/01/09 05:01:50;;;;;;;9.87;6.00;;;;;;;-0.70;81.34;99106.41;119822;1144;65104;-86
2021/01/09 05:04:18;;;;;;;9.23;5.13;;;;;;;-0.71;81.37;99112.52;119849;1144;65095;-86
2021/01/09 05:06:46;;;;;;;9.00;5.30;;;;;;;-0.73;82.19;99114.34;119837;1144;65299;-88
2021/01/09 05:09:14;;;;;;;7.97;5.07;;;;;;;-0.75;81.05;99115.29;119869;1144;65079;-88
2021/01/09 05:11:42;;;;;;;8.43;5.77;;;;;;;-0.76;81.40;99121.41;119767;1145;65108;-84
2021/01/09 05:14:10;;;;;;;7.73;5.10;;;;;;;-0.75;81.19;99128.40;119885;1144;65072;-85
2021/01/09 05:16:38;;;;;;;11.83;6.70;;;;;;;-0.77;81.68;99125.79;119873;1144;65853;-85
2021/01/09 05:19:05;;;;;;;12.57;6.27;;;;;;;-0.78;81.08;99126.69;119835;1144;65094;-88
2021/01/09 05:21:37;;;;;;;9.60;5.90;;;;;;;-0.76;82.16;99124.02;119918;1144;65178;-85
2021/01/09 05:24:04;;;;;;;10.00;5.60;;;;;;;-0.76;81.52;99129.27;119792;1144;65193;-87
2021/01/09 05:26:31;;;;;;;13.27;7.67;;;;;;;-0.79;82.23;99138.09;119854;1144;65171;-86
2021/01/09 05:29:00;;;;;;;10.43;5.77;;;;;;;-0.79;82.23;99137.23;119868;1144;65124;-85
2021/01/09 05:31:30;;;;;;;12.03;5.87;;;;;;;-0.82;81.95;99141.66;119889;1144;65184;-83
2021/01/09 05:33:58;;;;;;;15.23;7.33;;;;;;;-0.84;81.07;99148.68;119849;1144;65191;-87
2021/01/09 05:36:24;;;;;;;14.53;6.67;;;;;;;-0.84;81.79;99153.06;119803;1144;65101;-85
2021/01/09 05:38:51;;;;;;;17.80;7.53;;;;;;;-0.86;82.06;99153.11;119804;1144;65103;-86
2021/01/09 05:41:20;;;;;;;14.77;6.87;;;;;;;-0.86;82.19;99154.87;119817;1144;65085;-85
2021/01/09 05:44:04;;;;;;;11.03;5.80;;;;;;;-0.90;80.99;99159.31;119895;1144;65233;-84
2021/01/09 05:46:36;;;;;;;9.17;5.07;;;;;;;-0.93;82.12;99161.17;119866;1144;65098;-88
2021/01/09 05:49:04;;;;;;;8.93;5.53;;;;;;;-0.97;81.07;99167.38;119801;1144;65191;-85
2021/01/09 05:51:33;;;;;;;11.50;6.05;;;;;;;-1.02;82.12;99170.09;119844;1144;65038;-85
2021/01/09 05:54:00;;;;;;;9.47;4.77;;;;;;;-1.03;81.96;99173.62;119834;1144;65163;-85
2021/01/09 05:56:28;;;;;;;9.03;5.10;;;;;;;-1.06;82.21;99181.56;119824;1144;65193;-85
2021/01/09 05:58:55;;;;;;;11.10;6.07;;;;;;;-1.07;82.16;99182.47;119830;1144;65140;-89
2021/01/09 06:01:34;;;;;;;7.05;4.65;;;;;;;-1.08;81.68;99180.75;119840;1144;65111;-86
2021/01/09 06:04:18;;;;;;;12.87;5.40;;;;;;;-1.10;81.32;99177.28;119853;1144;65076;-88
2021/01/09 06:06:47;;;;;;;8.87;5.30;;;;;;;-1.11;81.99;99180.80;119755;1144;65095;-88
2021/01/09 06:09:20;;;;;;;12.60;5.40;;;;;;;-1.12;81.19;99192.19;119851;1144;65172;-87
2021/01/09 06:11:48;;;;;;;12.60;5.65;;;;;;;-1.10;82.29;99187.77;119871;1144;65121;-88
2021/01/09 06:14:14;;;;;;;18.77;6.53;;;;;;;-1.10;81.79;99196.48;119848;1144;65193;-85
2021/01/09 06:16:43;;;;;;;14.87;6.33;;;;;;;-1.09;82.02;99189.48;119846;1144;65114;-85
2021/01/09 06:19:11;;;;;;;13.43;6.00;;;;;;;-1.09;81.88;99190.34;119834;1144;65106;-85
2021/01/09 06:21:38;;;;;;;16.87;7.40;;;;;;;-1.09;81.47;99186.86;119808;1144;65168;-85
2021/01/09 06:24:05;;;;;;;13.73;7.00;;;;;;;-1.07;81.99;99194.72;119774;1145;65215;-85
2021/01/09 06:26:33;;;;;;;15.23;6.80;;;;;;;-1.07;82.01;99186.85;119774;1144;65147;-87
2021/01/09 06:29:20;;;;;;;11.63;6.23;;;;;;;-1.06;81.65;99201.67;119893;1147;65091;-90
2021/01/09 06:31:54;;;;;;;14.60;6.50;;;;;;;-1.04;81.56;99200.73;119787;1145;65169;-86
2021/01/09 06:34:28;;;;;;;16.37;6.00;;;;;;;-1.03;81.29;99199.83;119861;1144;65204;-85
2021/01/09 06:36:57;;;;;;;19.60;7.40;;;;;;;-1.02;81.25;99196.30;119806;1144;65111;-88
2021/01/09 06:39:32;;;;;;;26.27;9.00;;;;;;;-1.00;81.16;99205.02;119871;1145;65212;-85
2021/01/09 06:42:03;;;;;;;22.17;8.57;;;;;;;-0.99;81.08;99211.12;119842;1145;65085;-84
2021/01/09 06:44:30;;;;;;;15.93;7.33;;;;;;;-0.96;81.60;99208.41;119883;1146;65098;-86
2021/01/09 06:46:57;;;;;;;17.83;8.17;;;;;;;-0.94;81.69;99209.27;119815;1144;65099;-84
2021/01/09 06:49:25;;;;;;;16.93;8.37;;;;;;;-0.96;81.06;99214.52;119839;1147;65095;-84
2021/01/09 06:51:54;;;;;;;12.03;6.70;;;;;;;-0.96;81.37;99211.89;119812;1144;65028;-85
2021/01/09 06:54:23;;;;;;;16.60;8.33;;;;;;;-0.95;81.14;99212.78;119880;1144;65098;-84
2021/01/09 06:57:05;;;;;;;13.55;6.15;;;;;;;-0.92;81.24;99228.42;119815;1146;65165;-85
2021/01/09 06:59:33;;;;;;;10.63;6.10;;;;;;;-0.94;82.04;99224.98;119863;1144;65204;-86
2021/01/09 07:02:16;;;;;;;8.83;4.93;;;;;;;-0.92;81.39;99226.66;119784;1144;65146;-85
2021/01/09 07:05:06;;;;;;;11.53;5.77;;;;;;;-0.91;80.94;99228.38;119778;1146;65105;-88
2021/01/09 07:07:34;;;;;;;11.20;6.35;;;;;;;-0.90;82.07;99232.72;119828;1144;65109;-88
2021/01/09 07:10:26;;;;;;;12.05;5.95;;;;;;;-0.85;81.18;99240.49;119802;1144;65082;-86
2021/01/09 07:12:56;;;;;;;9.75;6.45;;;;;;;-0.80;80.94;99243.02;119850;1144;65255;-88
2021/01/09 07:15:23;;;;;;;19.70;8.47;;;;;;;-0.79;81.47;99242.97;119891;1144;65109;-85
2021/01/09 07:17:54;;;;;;;18.35;9.15;;;;;;;-0.77;81.36;99241.16;119827;1144;65098;-85
2021/01/09 07:20:23;;;;;;;14.70;7.20;;;;;;;-0.73;81.15;99245.45;119877;1144;65050;-86
2021/01/09 07:22:52;;;;;;;14.90;8.23;;;;;;;-0.69;81.11;99247.12;119876;1145;65108;-85
2021/01/09 07:25:27;;;;;;;12.23;7.13;;;;;;;-0.64;81.79;99253.09;119830;1144;65098;-84
2021/01/09 07:27:57;;;;;;;14.80;7.85;;;;;;;-0.61;81.31;99254.80;119855;1144;65580;-86
2021/01/09 07:30:25;;;;;;;12.20;7.25;;;;;;;-0.57;81.30;99256.46;119836;1144;65102;-88
2021/01/09 07:32:53;;;;;;;17.27;8.33;;;;;;;-0.55;81.61;99255.52;119893;1145;65102;-85
2021/01/09 07:35:31;;;;;;;13.20;6.80;;;;;;;-0.53;81.44;99262.48;119806;1144;65098;-85
2021/01/09 07:37:59;;;;;;;15.57;6.77;;;;;;;-0.48;81.84;99260.61;119844;1144;65078;-85
2021/01/09 07:40:30;;;;;;;10.87;6.83;;;;;;;-0.44;81.06;99275.39;119866;1145;65098;-88
2021/01/09 07:42:57;;;;;;;11.33;6.67;;;;;;;-0.41;81.51;99268.29;119884;1145;65086;-85
2021/01/09 07:45:30;;;;;;;13.00;7.80;;;;;;;-0.33;81.41;99276.83;119819;1145;65107;-87
2021/01/09 07:47:57;;;;;;;16.53;8.43;;;;;;;-0.20;82.19;99281.78;119847;1144;65097;-85
2021/01/09 07:50:24;;;;;;;16.97;7.90;;;;;;;-0.14;81.58;99276.37;119863;1144;65251;-89
2021/01/09 07:53:05;;;;;;;16.67;9.17;;;;;;;-0.21;81.34;99280.92;119857;1145;65310;-88
2021/01/09 07:55:45;;;;;;;17.35;8.55;;;;;;;-0.23;80.91;99290.60;119856;1144;65101;-86
2021/01/09 07:58:13;;;;;;;16.93;9.40;;;;;;;-0.21;81.20;99282.69;119830;1144;65212;-87
2021/01/09 08:00:44;;;;;;;15.60;8.30;;;;;;;-0.21;80.24;99290.56;119973;1145;65131;-89
2021/01/09 08:03:10;;;;;;;14.77;8.93;;;;;;;-0.21;81.17;99291.41;119796;1144;65220;-88
2021/01/09 08:05:37;;;;;;;21.13;12.10;;;;;;;-0.20;80.84;99295.77;119824;1144;65108;-84
2021/01/09 08:08:05;;;;;;;29.40;14.43;;;;;;;-0.18;80.61;99298.38;119879;1144;65225;-89
2021/01/09 08:10:33;;;;;;;21.17;11.53;;;;;;;-0.17;81.02;99297.47;119853;1144;65098;-85
2021/01/09 08:13:03;;;;;;;22.83;12.00;;;;;;;-0.19;81.21;99300.14;119849;1144;65100;-85
2021/01/09 08:15:31;;;;;;;19.70;9.13;;;;;;;-0.17;81.21;99300.09;119845;1144;65298;-87
2021/01/09 08:18:00;;;;;;;14.30;7.57;;;;;;;-0.14;81.03;99308.73;119902;1144;65065;-85
2021/01/09 08:20:27;;;;;;;12.50;7.00;;;;;;;-0.12;80.56;99309.58;119853;1144;65159;-87
2021/01/09 08:22:59;;;;;;;14.73;8.67;;;;;;;-0.12;80.46;99303.47;119860;1144;65124;-86
2021/01/09 08:25:28;;;;;;;20.13;9.33;;;;;;;-0.08;80.79;99312.97;119891;1144;65060;-86
2021/01/09 08:27:56;;;;;;;21.10;10.53;;;;;;;-0.06;80.96;99317.30;119790;1144;65212;-85
2021/01/09 08:30:28;;;;;;;24.80;11.10;;;;;;;-0.06;80.85;99317.30;119865;1144;65135;-86
2021/01/09 08:33:08;;;;;;;25.85;12.00;;;;;;;0.01;81.07;99317.16;119878;1144;65109;-86
2021/01/09 08:35:45;;;;;;;18.25;10.20;;;;;;;0.04;80.71;99322.31;119869;1144;65068;-84
2021/01/09 08:38:13;;;;;;;14.23;7.53;;;;;;;0.11;80.99;99322.11;119830;1144;65098;-85
2021/01/09 08:40:42;;;;;;;17.00;8.57;;;;;;;0.15;80.77;99322.91;119846;1144;65191;-86
2021/01/09 08:43:11;;;;;;;21.03;11.53;;;;;;;0.22;80.39;99325.33;119842;1144;65041;-84
2021/01/09 08:45:44;;;;;;;22.43;11.63;;;;;;;0.28;80.82;99331.33;119908;1144;65152;-84
2021/01/09 08:48:34;;;;;;;22.63;11.57;;;;;;;0.29;80.30;99335.68;119770;1144;65005;-87
2021/01/09 08:51:12;;;;;;;23.27;10.77;;;;;;;0.35;79.93;99335.52;119799;1144;65050;-86
2021/01/09 08:53:51;;;;;;;22.03;11.13;;;;;;;0.40;80.63;99328.39;119880;1144;65210;-84
2021/01/09 08:56:19;;;;;;;25.90;12.10;;;;;;;0.42;80.55;99334.45;119822;1144;65216;-85
2021/01/09 08:58:49;;;;;;;29.05;11.45;;;;;;;0.48;80.53;99339.55;119853;1144;65098;-84
2021/01/09 09:01:24;;;;;;;21.97;9.30;;;;;;;0.49;80.28;99333.38;119822;1144;65035;-85
2021/01/09 09:03:52;;;;;;;30.20;11.35;;;;;;;0.47;80.24;99343.08;119908;1144;65133;-86
2021/01/09 09:06:22;;;;;;;29.15;10.55;;;;;;;0.48;80.31;99340.41;119838;1144;65279;-85
2021/01/09 09:08:53;;;;;;;16.73;8.53;;;;;;;0.51;79.75;99332.45;119599;1144;65111;-85
2021/01/09 09:11:24;;;;;;;23.50;9.85;;;;;;;0.54;79.83;99344.64;119789;1144;65136;-83
2021/01/09 09:14:09;;;;;;;24.13;10.23;;;;;;;0.57;79.66;99341.91;119912;1144;65644;-87
2021/01/09 09:16:36;;;;;;;;;;;;;;;0.63;80.14;99338.26;119918;1144;65099;-86
2021/01/09 09:19:17;;;;;;;25.60;10.00;;;;;;;0.70;80.01;99338.08;119845;1144;65242;-87
2021/01/09 09:21:57;;;;;;;20.13;9.13;;;;;;;0.78;79.52;99343.97;119862;1145;65087;-86
2021/01/09 09:24:40;;;;;;;19.07;7.70;;;;;;;0.84;80.03;99342.08;119858;1144;65147;-85
2021/01/09 09:27:27;;;;;;;17.53;8.60;;;;;;;1.01;79.93;99343.30;119919;1144;65242;-86
2021/01/09 09:30:07;;;;;;;21.27;10.60;;;;;;;1.11;79.79;99336.02;119883;1144;65095;-85
2021/01/09 09:32:34;;;;;;;19.00;8.05;;;;;;;1.04;79.28;99335.34;119845;1144;65133;-88
2021/01/09 09:35:21;;;;;;;13.00;6.65;;;;;;;1.02;78.99;99341.56;119852;1144;65136;-85
2021/01/09 09:37:47;;;;;;;18.37;7.93;;;;;;;1.03;79.56;99345.91;119842;1144;65193;-86
2021/01/09 09:40:27;;;;;;;18.17;9.10;;;;;;;1.11;79.63;99335.16;119833;1143;65110;-84
2021/01/09 09:42:54;;;;;;;17.07;8.07;;;;;;;1.23;79.53;99340.06;119936;1144;65080;-87
2021/01/09 09:45:21;;;;;;;13.57;7.13;;;;;;;1.28;79.30;99343.42;119789;1144;65092;-85
2021/01/09 09:47:49;;;;;;;23.13;12.17;;;;;;;1.29;79.20;99339.88;119868;1144;65108;-84
2021/01/09 09:50:20;;;;;;;16.20;9.23;;;;;;;1.34;79.30;99330.09;119810;1144;65154;-83
2021/01/09 09:53:01;;;;;;;15.53;7.80;;;;;;;1.35;78.72;99330.03;119900;1144;65074;-84
2021/01/09 09:55:28;;;;;;;15.77;8.40;;;;;;;1.30;78.58;99331.94;119909;1144;65102;-83
2021/01/09 09:58:08;;;;;;;18.23;9.20;;;;;;;1.27;78.86;99334.67;119811;1144;65217;-85
2021/01/09 10:00:43;;;;;;;23.40;10.60;;;;;;;1.24;78.67;99328.63;119855;1144;65191;-88
2021/01/09 10:03:09;;;;;;;25.15;11.20;;;;;;;1.30;78.97;99329.30;119884;1144;65034;-84
2021/01/09 10:05:36;;;;;;;17.95;9.60;;;;;;;1.44;78.89;99328.88;119887;1144;65191;-83
2021/01/09 10:08:17;;;;;;;19.83;10.53;;;;;;;1.64;78.72;99322.99;119837;1144;65073;-86
2021/01/09 10:10:50;;;;;;;16.60;9.43;;;;;;;1.74;78.72;99321.80;119873;1144;65348;-86
2021/01/09 10:13:28;;;;;;;15.60;8.50;;;;;;;1.84;78.73;99319.72;119849;1144;65131;-87
2021/01/09 10:15:58;;;;;;;16.35;7.75;;;;;;;1.88;78.16;99323.98;119867;1144;65106;-85
2021/01/09 10:18:26;;;;;;;16.60;8.80;;;;;;;1.77;78.30;99320.83;119835;1144;65109;-87
2021/01/09 10:20:52;;;;;;;15.47;8.50;;;;;;;1.70;78.31;99325.43;119875;1144;65178;-85
2021/01/09 10:23:19;;;;;;;14.33;8.70;;;;;;;1.69;78.22;99320.22;119838;1144;65140;-86
2021/01/09 10:25:45;;;;;;;12.20;7.73;;;;;;;1.72;78.11;99323.63;119848;1144;65136;-89
2021/01/09 10:28:12;;;;;;;16.25;8.55;;;;;;;1.71;77.72;99316.62;119842;1144;65108;-85
2021/01/09 10:30:39;;;;;;;11.37;6.53;;;;;;;1.73;78.35;99324.49;119833;1144;65175;-87
2021/01/09 10:33:06;;;;;;;14.63;7.50;;;;;;;1.84;79.07;99314.45;119811;1144;65104;-85
2021/01/09 10:35:32;;;;;;;15.53;8.47;;;;;;;2.01;78.79;99313.91;119798;1144;65127;-83
2021/01/09 10:37:59;;;;;;;10.90;7.10;;;;;;;2.13;78.60;99313.50;119874;1144;65109;-84
2021/01/09 10:40:26;;;;;;;12.80;7.33;;;;;;;2.27;78.57;99310.39;119846;1142;65130;-88
2021/01/09 10:42:52;;;;;;;11.53;7.00;;;;;;;2.34;78.31;99302.21;119846;1144;65089;-84
2021/01/09 10:45:19;;;;;;;12.57;7.23;;;;;;;2.39;77.97;99305.55;119895;1144;65085;-86
2021/01/09 10:47:45;;;;;;;11.43;6.83;;;;;;;2.50;77.95;99301.69;119838;1144;65348;-87
2021/01/09 10:50:12;;;;;;;12.00;7.37;;;;;;;2.50;77.42;99299.05;119842;1144;65414;-86
2021/01/09 10:52:40;;;;;;;13.15;8.20;;;;;;;2.42;77.83;99300.19;119858;1144;65197;-85
2021/01/09 10:55:07;;;;;;;15.47;8.87;;;;;;;2.46;78.37;99302.70;119840;1144;65181;-88
2021/01/09 10:57:33;;;;;;;20.33;10.43;;;;;;;2.46;77.73;99302.70;119840;1144;65108;-84
2021/01/09 10:59:59;;;;;;;19.23;10.03;;;;;;;2.31;77.67;99299.70;119808;1144;65079;-85
2021/01/09 11:02:26;;;;;;;33.43;14.80;;;;;;;2.25;77.25;99296.41;119860;1144;65098;-88
2021/01/09 11:04:52;;;;;;;20.40;11.78;;;;;;;2.27;77.80;99294.58;119853;1144;65188;-84
2021/01/09 11:07:18;;;;;;;17.80;9.60;;;;;;;2.26;78.03;99298.98;119814;1144;65082;-84
2021/01/09 11:09:45;;;;;;;46.90;17.43;;;;;;;2.22;77.97;99297.36;119870;1144;65082;-85
2021/01/09 11:12:11;;;;;;;23.93;11.60;;;;;;;2.25;77.64;99297.27;119858;1144;65065;-84
2021/01/09 11:14:38;;;;;;;16.90;10.13;;;;;;;2.28;77.31;99296.30;119895;1144;65115;-84
2021/01/09 11:17:04;;;;;;;17.15;10.15;;;;;;;2.35;78.40;99301.30;119815;1144;65108;-84
2021/01/09 11:19:31;;;;;;;15.35;9.03;;;;;;;2.45;77.94;99304.48;119923;1144;65127;-85
2021/01/09 11:22:03;;;;;;;26.63;14.10;;;;;;;2.49;78.04;99302.61;119842;1144;65095;-87
2021/01/09 11:24:33;;;;;;;28.90;14.55;;;;;;;2.31;76.97;99298.84;119874;1144;65255;-85
2021/01/09 11:27:01;;;;;;;33.35;14.35;;;;;;;2.11;76.93;99304.80;119841;1144;65063;-85